sensor_id;sensor_type;location;lat;lon;timestamp;P1;durP1;ratioP1;P2;durP2;ratioP2
38425;SDS011;24210;51.460;6.148;2023-03-23T00:01:44;4.03;;;1.70;;
38425;SDS011;24210;51.460;6.148;2023-03-23T00:04:09;3.43;;;2.07;;
38425;SDS011;24210;51.460;6.148;2023-03-23T00:06:37;2.42;;;1.45;;
38425;SDS011;24210;51.460;6.148;2023-03-23T00:09:02;5.33;;;2.23;;
38425;SDS011;24210;51.460;6.148;2023-03-23T00:11:29;4.50;;;1.58;;
38425;SDS011;24210;51.460;6.148;2023-03-23T00:13:55;3.55;;;1.55;;
38425;SDS011;24210;51.460;6.148;2023-03-23T00:16:23;3.78;;;1.95;;
38425;SDS011;24210;51.460;6.148;2023-03-23T00:18:55;4.25;;;1.60;;
38425;SDS011;24210;51.460;6.148;2023-03-23T00:23:57;2.72;;;1.27;;
38425;SDS011;24210;51.460;6.148;2023-03-23T00:28:53;3.25;;;1.83;;
38425;SDS011;24210;51.460;6.148;2023-03-23T00:31:18;4.23;;;2.20;;
38425;SDS011;24210;51.460;6.148;2023-03-23T00:33:44;2.93;;;2.00;;
38425;SDS011;24210;51.460;6.148;2023-03-23T00:36:12;4.00;;;1.60;;
38425;SDS011;24210;51.460;6.148;2023-03-23T00:38:38;2.35;;;1.92;;
38425;SDS011;24210;51.460;6.148;2023-03-23T00:41:04;3.92;;;2.08;;
38425;SDS011;24210;51.460;6.148;2023-03-23T00:43:30;4.77;;;2.03;;
38425;SDS011;24210;51.460;6.148;2023-03-23T00:45:56;3.38;;;2.20;;
38425;SDS011;24210;51.460;6.148;2023-03-23T00:48:22;2.23;;;1.97;;
38425;SDS011;24210;51.460;6.148;2023-03-23T00:50:48;2.15;;;1.92;;
38425;SDS011;24210;51.460;6.148;2023-03-23T00:53:13;5.37;;;2.40;;
38425;SDS011;24210;51.460;6.148;2023-03-23T00:55:43;2.97;;;2.20;;
38425;SDS011;24210;51.460;6.148;2023-03-23T00:58:08;2.90;;;2.00;;
38425;SDS011;24210;51.460;6.148;2023-03-23T01:00:34;1.80;;;1.53;;
38425;SDS011;24210;51.460;6.148;2023-03-23T01:02:59;6.60;;;1.93;;
38425;SDS011;24210;51.460;6.148;2023-03-23T01:05:25;3.43;;;2.37;;
38425;SDS011;24210;51.460;6.148;2023-03-23T01:07:59;4.35;;;2.38;;
38425;SDS011;24210;51.460;6.148;2023-03-23T01:10:25;5.13;;;2.88;;
38425;SDS011;24210;51.460;6.148;2023-03-23T01:12:53;2.05;;;1.52;;
38425;SDS011;24210;51.460;6.148;2023-03-23T01:15:19;4.43;;;2.13;;
38425;SDS011;24210;51.460;6.148;2023-03-23T01:17:45;1.75;;;1.40;;
38425;SDS011;24210;51.460;6.148;2023-03-23T01:20:11;4.90;;;2.83;;
38425;SDS011;24210;51.460;6.148;2023-03-23T01:22:39;6.43;;;2.17;;
38425;SDS011;24210;51.460;6.148;2023-03-23T01:25:04;3.40;;;2.22;;
38425;SDS011;24210;51.460;6.148;2023-03-23T01:27:30;3.17;;;2.10;;
38425;SDS011;24210;51.460;6.148;2023-03-23T01:29:55;5.00;;;3.10;;
38425;SDS011;24210;51.460;6.148;2023-03-23T01:32:20;2.43;;;2.03;;
38425;SDS011;24210;51.460;6.148;2023-03-23T01:34:46;2.60;;;2.40;;
38425;SDS011;24210;51.460;6.148;2023-03-23T01:37:11;3.60;;;2.13;;
38425;SDS011;24210;51.460;6.148;2023-03-23T01:39:36;1.47;;;1.23;;
38425;SDS011;24210;51.460;6.148;2023-03-23T01:42:02;3.03;;;1.80;;
38425;SDS011;24210;51.460;6.148;2023-03-23T01:46:56;4.18;;;3.08;;
38425;SDS011;24210;51.460;6.148;2023-03-23T01:49:22;4.00;;;2.13;;
38425;SDS011;24210;51.460;6.148;2023-03-23T01:51:53;2.83;;;2.38;;
38425;SDS011;24210;51.460;6.148;2023-03-23T01:54:20;4.32;;;2.35;;
38425;SDS011;24210;51.460;6.148;2023-03-23T01:56:47;3.33;;;2.03;;
38425;SDS011;24210;51.460;6.148;2023-03-23T01:59:13;3.22;;;2.65;;
38425;SDS011;24210;51.460;6.148;2023-03-23T02:01:39;3.63;;;1.80;;
38425;SDS011;24210;51.460;6.148;2023-03-23T02:04:10;3.90;;;2.30;;
38425;SDS011;24210;51.460;6.148;2023-03-23T02:06:36;3.35;;;2.10;;
38425;SDS011;24210;51.460;6.148;2023-03-23T02:09:01;5.57;;;2.87;;
38425;SDS011;24210;51.460;6.148;2023-03-23T02:11:26;5.10;;;2.10;;
38425;SDS011;24210;51.460;6.148;2023-03-23T02:13:51;4.83;;;2.83;;
38425;SDS011;24210;51.460;6.148;2023-03-23T02:19:06;4.28;;;2.58;;
38425;SDS011;24210;51.460;6.148;2023-03-23T02:24:03;4.47;;;2.47;;
38425;SDS011;24210;51.460;6.148;2023-03-23T02:42:01;4.60;;;1.85;;
38425;SDS011;24210;51.460;6.148;2023-03-23T02:44:27;3.78;;;2.30;;
38425;SDS011;24210;51.460;6.148;2023-03-23T02:46:55;3.22;;;2.50;;
38425;SDS011;24210;51.460;6.148;2023-03-23T02:49:20;3.33;;;2.80;;
38425;SDS011;24210;51.460;6.148;2023-03-23T02:51:46;3.95;;;2.40;;
38425;SDS011;24210;51.460;6.148;2023-03-23T02:54:13;5.45;;;2.65;;
38425;SDS011;24210;51.460;6.148;2023-03-23T02:56:40;6.68;;;3.05;;
38425;SDS011;24210;51.460;6.148;2023-03-23T02:59:05;5.07;;;2.30;;
38425;SDS011;24210;51.460;6.148;2023-03-23T03:04:01;4.07;;;2.05;;
38425;SDS011;24210;51.460;6.148;2023-03-23T03:11:50;3.60;;;2.65;;
38425;SDS011;24210;51.460;6.148;2023-03-23T03:14:21;3.08;;;2.17;;
38425;SDS011;24210;51.460;6.148;2023-03-23T03:17:00;2.50;;;2.28;;
38425;SDS011;24210;51.460;6.148;2023-03-23T03:19:27;4.28;;;2.38;;
38425;SDS011;24210;51.460;6.148;2023-03-23T03:21:54;4.43;;;2.80;;
38425;SDS011;24210;51.460;6.148;2023-03-23T03:24:22;4.93;;;2.78;;
38425;SDS011;24210;51.460;6.148;2023-03-23T03:26:49;3.22;;;2.83;;
38425;SDS011;24210;51.460;6.148;2023-03-23T03:29:16;3.58;;;2.58;;
38425;SDS011;24210;51.460;6.148;2023-03-23T03:31:42;4.15;;;3.05;;
38425;SDS011;24210;51.460;6.148;2023-03-23T03:34:10;3.03;;;2.28;;
38425;SDS011;24210;51.460;6.148;2023-03-23T03:36:36;2.63;;;2.43;;
38425;SDS011;24210;51.460;6.148;2023-03-23T03:41:31;4.45;;;3.10;;
38425;SDS011;24210;51.460;6.148;2023-03-23T03:43:56;2.53;;;2.10;;
38425;SDS011;24210;51.460;6.148;2023-03-23T03:46:22;4.57;;;2.67;;
38425;SDS011;24210;51.460;6.148;2023-03-23T03:48:51;2.67;;;2.45;;
38425;SDS011;24210;51.460;6.148;2023-03-23T03:51:17;2.53;;;2.03;;
38425;SDS011;24210;51.460;6.148;2023-03-23T03:53:42;4.40;;;2.57;;
38425;SDS011;24210;51.460;6.148;2023-03-23T03:56:07;3.80;;;2.00;;
38425;SDS011;24210;51.460;6.148;2023-03-23T03:58:32;2.63;;;1.80;;
38425;SDS011;24210;51.460;6.148;2023-03-23T04:01:01;3.75;;;2.17;;
38425;SDS011;24210;51.460;6.148;2023-03-23T04:03:26;3.33;;;2.73;;
38425;SDS011;24210;51.460;6.148;2023-03-23T04:05:52;5.10;;;2.63;;
38425;SDS011;24210;51.460;6.148;2023-03-23T04:08:19;3.00;;;1.48;;
38425;SDS011;24210;51.460;6.148;2023-03-23T04:10:46;3.50;;;1.80;;
38425;SDS011;24210;51.460;6.148;2023-03-23T04:13:12;2.80;;;1.87;;
38425;SDS011;24210;51.460;6.148;2023-03-23T04:15:37;4.20;;;2.47;;
38425;SDS011;24210;51.460;6.148;2023-03-23T04:18:04;3.72;;;1.83;;
38425;SDS011;24210;51.460;6.148;2023-03-23T04:20:30;2.33;;;2.03;;
38425;SDS011;24210;51.460;6.148;2023-03-23T04:22:55;2.20;;;1.87;;
38425;SDS011;24210;51.460;6.148;2023-03-23T04:25:21;4.73;;;2.17;;
38425;SDS011;24210;51.460;6.148;2023-03-23T04:27:47;2.20;;;1.80;;
38425;SDS011;24210;51.460;6.148;2023-03-23T04:30:17;3.10;;;2.25;;
38425;SDS011;24210;51.460;6.148;2023-03-23T04:32:43;3.83;;;2.20;;
38425;SDS011;24210;51.460;6.148;2023-03-23T04:35:09;3.93;;;1.83;;
38425;SDS011;24210;51.460;6.148;2023-03-23T04:37:36;3.85;;;1.95;;
38425;SDS011;24210;51.460;6.148;2023-03-23T04:40:01;3.30;;;2.30;;
38425;SDS011;24210;51.460;6.148;2023-03-23T04:42:31;3.72;;;1.83;;
38425;SDS011;24210;51.460;6.148;2023-03-23T04:44:57;3.57;;;2.00;;
38425;SDS011;24210;51.460;6.148;2023-03-23T04:47:23;3.75;;;2.42;;
38425;SDS011;24210;51.460;6.148;2023-03-23T04:49:48;1.95;;;1.58;;
38425;SDS011;24210;51.460;6.148;2023-03-23T04:52:14;3.20;;;2.20;;
38425;SDS011;24210;51.460;6.148;2023-03-23T04:54:39;3.77;;;2.20;;
38425;SDS011;24210;51.460;6.148;2023-03-23T04:57:05;2.93;;;1.90;;
38425;SDS011;24210;51.460;6.148;2023-03-23T04:59:30;4.43;;;1.70;;
38425;SDS011;24210;51.460;6.148;2023-03-23T05:01:55;4.77;;;2.20;;
38425;SDS011;24210;51.460;6.148;2023-03-23T05:04:21;2.50;;;2.27;;
38425;SDS011;24210;51.460;6.148;2023-03-23T05:06:47;2.00;;;1.60;;
38425;SDS011;24210;51.460;6.148;2023-03-23T05:09:13;2.90;;;2.00;;
38425;SDS011;24210;51.460;6.148;2023-03-23T05:11:38;3.57;;;1.70;;
38425;SDS011;24210;51.460;6.148;2023-03-23T05:14:04;3.53;;;1.70;;
38425;SDS011;24210;51.460;6.148;2023-03-23T05:16:29;2.47;;;2.13;;
38425;SDS011;24210;51.460;6.148;2023-03-23T05:18:55;3.37;;;1.27;;
38425;SDS011;24210;51.460;6.148;2023-03-23T05:21:22;5.25;;;2.05;;
38425;SDS011;24210;51.460;6.148;2023-03-23T05:23:47;5.10;;;1.63;;
38425;SDS011;24210;51.460;6.148;2023-03-23T05:26:19;2.55;;;1.63;;
38425;SDS011;24210;51.460;6.148;2023-03-23T05:28:44;6.10;;;2.50;;
38425;SDS011;24210;51.460;6.148;2023-03-23T05:31:10;4.33;;;1.60;;
38425;SDS011;24210;51.460;6.148;2023-03-23T05:33:35;10.43;;;2.33;;
38425;SDS011;24210;51.460;6.148;2023-03-23T05:36:01;1.60;;;1.50;;
38425;SDS011;24210;51.460;6.148;2023-03-23T05:38:29;4.70;;;2.20;;
38425;SDS011;24210;51.460;6.148;2023-03-23T05:40:57;3.63;;;1.50;;
38425;SDS011;24210;51.460;6.148;2023-03-23T05:43:24;5.75;;;1.92;;
38425;SDS011;24210;51.460;6.148;2023-03-23T05:45:50;4.17;;;1.67;;
38425;SDS011;24210;51.460;6.148;2023-03-23T05:48:15;3.37;;;1.43;;
38425;SDS011;24210;51.460;6.148;2023-03-23T05:50:41;4.47;;;1.50;;
38425;SDS011;24210;51.460;6.148;2023-03-23T05:53:06;3.87;;;1.40;;
38425;SDS011;24210;51.460;6.148;2023-03-23T05:55:31;3.57;;;1.90;;
38425;SDS011;24210;51.460;6.148;2023-03-23T05:57:58;7.13;;;1.97;;
38425;SDS011;24210;51.460;6.148;2023-03-23T06:00:23;4.00;;;1.50;;
38425;SDS011;24210;51.460;6.148;2023-03-23T06:02:49;3.77;;;1.33;;
38425;SDS011;24210;51.460;6.148;2023-03-23T06:07:41;5.60;;;2.63;;
38425;SDS011;24210;51.460;6.148;2023-03-23T06:10:06;5.40;;;1.40;;
38425;SDS011;24210;51.460;6.148;2023-03-23T06:12:32;2.57;;;1.57;;
38425;SDS011;24210;51.460;6.148;2023-03-23T06:14:57;6.47;;;2.47;;
38425;SDS011;24210;51.460;6.148;2023-03-23T06:17:23;3.20;;;1.17;;
38425;SDS011;24210;51.460;6.148;2023-03-23T06:19:48;3.87;;;1.60;;
38425;SDS011;24210;51.460;6.148;2023-03-23T06:22:15;4.60;;;1.60;;
38425;SDS011;24210;51.460;6.148;2023-03-23T06:24:41;3.27;;;1.50;;
38425;SDS011;24210;51.460;6.148;2023-03-23T06:27:06;1.77;;;0.47;;
38425;SDS011;24210;51.460;6.148;2023-03-23T06:29:33;3.00;;;1.50;;
38425;SDS011;24210;51.460;6.148;2023-03-23T06:31:58;5.23;;;2.50;;
38425;SDS011;24210;51.460;6.148;2023-03-23T06:34:24;4.63;;;1.50;;
38425;SDS011;24210;51.460;6.148;2023-03-23T06:36:50;0.73;;;0.30;;
38425;SDS011;24210;51.460;6.148;2023-03-23T06:39:15;1.57;;;0.40;;
38425;SDS011;24210;51.460;6.148;2023-03-23T06:41:40;4.83;;;1.57;;
38425;SDS011;24210;51.460;6.148;2023-03-23T06:44:06;3.03;;;1.43;;
38425;SDS011;24210;51.460;6.148;2023-03-23T06:46:31;4.20;;;1.20;;
38425;SDS011;24210;51.460;6.148;2023-03-23T06:48:57;2.07;;;0.50;;
38425;SDS011;24210;51.460;6.148;2023-03-23T06:51:22;2.10;;;0.83;;
38425;SDS011;24210;51.460;6.148;2023-03-23T06:53:48;2.03;;;1.00;;
38425;SDS011;24210;51.460;6.148;2023-03-23T06:56:13;4.77;;;1.10;;
38425;SDS011;24210;51.460;6.148;2023-03-23T06:58:39;2.30;;;0.90;;
38425;SDS011;24210;51.460;6.148;2023-03-23T07:01:04;2.78;;;0.75;;
38425;SDS011;24210;51.460;6.148;2023-03-23T07:03:30;0.90;;;0.30;;
38425;SDS011;24210;51.460;6.148;2023-03-23T07:05:56;4.82;;;1.25;;
38425;SDS011;24210;51.460;6.148;2023-03-23T07:08:22;2.10;;;1.00;;
38425;SDS011;24210;51.460;6.148;2023-03-23T07:10:47;2.17;;;0.93;;
38425;SDS011;24210;51.460;6.148;2023-03-23T07:13:12;1.90;;;0.40;;
38425;SDS011;24210;51.460;6.148;2023-03-23T07:15:38;1.73;;;0.80;;
38425;SDS011;24210;51.460;6.148;2023-03-23T07:18:03;2.87;;;0.77;;
38425;SDS011;24210;51.460;6.148;2023-03-23T07:20:28;4.43;;;0.70;;
38425;SDS011;24210;51.460;6.148;2023-03-23T07:22:54;6.10;;;1.07;;
38425;SDS011;24210;51.460;6.148;2023-03-23T07:25:19;2.50;;;0.57;;
38425;SDS011;24210;51.460;6.148;2023-03-23T07:27:45;2.93;;;0.43;;
38425;SDS011;24210;51.460;6.148;2023-03-23T07:30:11;0.50;;;0.27;;
38425;SDS011;24210;51.460;6.148;2023-03-23T07:32:37;0.47;;;0.10;;
38425;SDS011;24210;51.460;6.148;2023-03-23T07:35:02;1.70;;;0.87;;
38425;SDS011;24210;51.460;6.148;2023-03-23T07:37:28;0.98;;;0.30;;
38425;SDS011;24210;51.460;6.148;2023-03-23T07:39:54;0.87;;;0.33;;
38425;SDS011;24210;51.460;6.148;2023-03-23T07:42:19;4.57;;;1.20;;
38425;SDS011;24210;51.460;6.148;2023-03-23T07:44:44;4.10;;;0.50;;
38425;SDS011;24210;51.460;6.148;2023-03-23T07:47:09;1.93;;;0.67;;
38425;SDS011;24210;51.460;6.148;2023-03-23T07:49:35;1.73;;;1.00;;
38425;SDS011;24210;51.460;6.148;2023-03-23T07:52:00;3.57;;;0.60;;
38425;SDS011;24210;51.460;6.148;2023-03-23T07:54:26;3.60;;;1.20;;
38425;SDS011;24210;51.460;6.148;2023-03-23T07:56:51;1.23;;;0.73;;
38425;SDS011;24210;51.460;6.148;2023-03-23T07:59:16;0.90;;;0.53;;
38425;SDS011;24210;51.460;6.148;2023-03-23T08:01:42;2.60;;;0.53;;
38425;SDS011;24210;51.460;6.148;2023-03-23T08:04:07;2.70;;;0.50;;
38425;SDS011;24210;51.460;6.148;2023-03-23T08:06:33;3.10;;;1.17;;
38425;SDS011;24210;51.460;6.148;2023-03-23T08:08:59;6.43;;;1.40;;
38425;SDS011;24210;51.460;6.148;2023-03-23T08:11:25;3.87;;;0.67;;
38425;SDS011;24210;51.460;6.148;2023-03-23T08:13:50;1.40;;;0.50;;
38425;SDS011;24210;51.460;6.148;2023-03-23T08:16:16;0.50;;;0.27;;
38425;SDS011;24210;51.460;6.148;2023-03-23T08:18:41;3.50;;;0.80;;
38425;SDS011;24210;51.460;6.148;2023-03-23T08:21:07;3.63;;;0.93;;
38425;SDS011;24210;51.460;6.148;2023-03-23T08:23:36;0.38;;;0.38;;
38425;SDS011;24210;51.460;6.148;2023-03-23T08:26:04;1.90;;;0.60;;
38425;SDS011;24210;51.460;6.148;2023-03-23T08:28:31;2.05;;;1.27;;
38425;SDS011;24210;51.460;6.148;2023-03-23T08:30:57;1.57;;;0.27;;
38425;SDS011;24210;51.460;6.148;2023-03-23T08:33:22;0.80;;;0.70;;
38425;SDS011;24210;51.460;6.148;2023-03-23T08:35:54;9.00;;;1.77;;
38425;SDS011;24210;51.460;6.148;2023-03-23T08:38:20;1.55;;;1.13;;
38425;SDS011;24210;51.460;6.148;2023-03-23T08:40:46;2.17;;;0.80;;
38425;SDS011;24210;51.460;6.148;2023-03-23T08:43:12;1.88;;;0.73;;
38425;SDS011;24210;51.460;6.148;2023-03-23T08:45:37;4.03;;;0.23;;
38425;SDS011;24210;51.460;6.148;2023-03-23T08:48:02;0.40;;;0.40;;
38425;SDS011;24210;51.460;6.148;2023-03-23T08:50:28;8.33;;;0.67;;
38425;SDS011;24210;51.460;6.148;2023-03-23T08:52:53;4.67;;;0.60;;
38425;SDS011;24210;51.460;6.148;2023-03-23T08:55:19;2.53;;;0.57;;
38425;SDS011;24210;51.460;6.148;2023-03-23T08:57:45;0.47;;;0.30;;
38425;SDS011;24210;51.460;6.148;2023-03-23T09:00:12;1.10;;;0.95;;
38425;SDS011;24210;51.460;6.148;2023-03-23T09:02:43;3.67;;;1.17;;
38425;SDS011;24210;51.460;6.148;2023-03-23T09:05:09;0.10;;;0.10;;
38425;SDS011;24210;51.460;6.148;2023-03-23T09:07:36;5.00;;;0.60;;
38425;SDS011;24210;51.460;6.148;2023-03-23T09:10:02;0.20;;;0.20;;
38425;SDS011;24210;51.460;6.148;2023-03-23T09:12:27;0.10;;;0.10;;
38425;SDS011;24210;51.460;6.148;2023-03-23T09:14:52;0.73;;;0.27;;
38425;SDS011;24210;51.460;6.148;2023-03-23T09:17:18;0.80;;;0.63;;
38425;SDS011;24210;51.460;6.148;2023-03-23T09:19:43;1.90;;;1.07;;
38425;SDS011;24210;51.460;6.148;2023-03-23T09:22:09;2.07;;;0.47;;
38425;SDS011;24210;51.460;6.148;2023-03-23T09:24:34;2.33;;;0.17;;
38425;SDS011;24210;51.460;6.148;2023-03-23T09:26:59;0.37;;;0.07;;
38425;SDS011;24210;51.460;6.148;2023-03-23T09:29:25;0.20;;;0.00;;
38425;SDS011;24210;51.460;6.148;2023-03-23T09:31:52;1.35;;;0.10;;
38425;SDS011;24210;51.460;6.148;2023-03-23T09:34:17;1.60;;;0.53;;
38425;SDS011;24210;51.460;6.148;2023-03-23T09:36:43;0.07;;;0.07;;
38425;SDS011;24210;51.460;6.148;2023-03-23T09:39:08;0.85;;;0.63;;
38425;SDS011;24210;51.460;6.148;2023-03-23T09:41:47;0.70;;;0.38;;
38425;SDS011;24210;51.460;6.148;2023-03-23T09:46:58;0.38;;;0.10;;
38425;SDS011;24210;51.460;6.148;2023-03-23T09:49:32;1.05;;;0.03;;
38425;SDS011;24210;51.460;6.148;2023-03-23T09:54:35;1.67;;;0.32;;
38425;SDS011;24210;51.460;6.148;2023-03-23T09:57:01;1.50;;;0.30;;
38425;SDS011;24210;51.460;6.148;2023-03-23T10:01:57;0.90;;;0.17;;
38425;SDS011;24210;51.460;6.148;2023-03-23T10:04:29;3.53;;;0.75;;
38425;SDS011;24210;51.460;6.148;2023-03-23T10:06:59;0.10;;;0.10;;
38425;SDS011;24210;51.460;6.148;2023-03-23T10:09:25;0.68;;;0.32;;
38425;SDS011;24210;51.460;6.148;2023-03-23T10:17:14;4.35;;;0.65;;
38425;SDS011;24210;51.460;6.148;2023-03-23T10:22:11;1.05;;;0.20;;
38425;SDS011;24210;51.460;6.148;2023-03-23T10:27:13;2.37;;;0.37;;
38425;SDS011;24210;51.460;6.148;2023-03-23T10:29:43;0.10;;;0.10;;
38425;SDS011;24210;51.460;6.148;2023-03-23T10:32:15;2.33;;;0.30;;
38425;SDS011;24210;51.460;6.148;2023-03-23T10:37:13;1.90;;;0.45;;
38425;SDS011;24210;51.460;6.148;2023-03-23T10:39:44;1.23;;;0.63;;
38425;SDS011;24210;51.460;6.148;2023-03-23T10:42:11;1.40;;;0.50;;
38425;SDS011;24210;51.460;6.148;2023-03-23T10:44:36;1.17;;;0.60;;
38425;SDS011;24210;51.460;6.148;2023-03-23T10:47:03;1.63;;;0.30;;
38425;SDS011;24210;51.460;6.148;2023-03-23T10:54:26;2.28;;;0.20;;
38425;SDS011;24210;51.460;6.148;2023-03-23T10:56:51;1.17;;;0.13;;
38425;SDS011;24210;51.460;6.148;2023-03-23T10:59:20;2.80;;;0.20;;
38425;SDS011;24210;51.460;6.148;2023-03-23T11:01:47;0.88;;;0.20;;
38425;SDS011;24210;51.460;6.148;2023-03-23T11:04:13;3.67;;;0.70;;
38425;SDS011;24210;51.460;6.148;2023-03-23T11:09:17;2.33;;;0.98;;
38425;SDS011;24210;51.460;6.148;2023-03-23T11:11:47;1.47;;;0.37;;
38425;SDS011;24210;51.460;6.148;2023-03-23T11:14:24;1.63;;;0.43;;
38425;SDS011;24210;51.460;6.148;2023-03-23T11:16:53;1.77;;;0.20;;
38425;SDS011;24210;51.460;6.148;2023-03-23T11:19:30;1.58;;;0.30;;
38425;SDS011;24210;51.460;6.148;2023-03-23T11:22:16;6.05;;;0.65;;
38425;SDS011;24210;51.460;6.148;2023-03-23T11:24:44;0.73;;;0.30;;
38425;SDS011;24210;51.460;6.148;2023-03-23T11:27:10;0.57;;;0.30;;
38425;SDS011;24210;51.460;6.148;2023-03-23T11:29:37;2.03;;;0.30;;
38425;SDS011;24210;51.460;6.148;2023-03-23T11:32:08;1.90;;;0.30;;
38425;SDS011;24210;51.460;6.148;2023-03-23T11:34:39;2.75;;;1.02;;
38425;SDS011;24210;51.460;6.148;2023-03-23T11:37:13;0.43;;;0.20;;
38425;SDS011;24210;51.460;6.148;2023-03-23T11:39:47;0.35;;;0.32;;
38425;SDS011;24210;51.460;6.148;2023-03-23T11:42:23;0.10;;;0.00;;
38425;SDS011;24210;51.460;6.148;2023-03-23T11:44:52;1.05;;;0.40;;
38425;SDS011;24210;51.460;6.148;2023-03-23T11:47:28;0.37;;;0.37;;
38425;SDS011;24210;51.460;6.148;2023-03-23T11:58:00;0.90;;;0.35;;
38425;SDS011;24210;51.460;6.148;2023-03-23T12:00:25;0.10;;;0.10;;
38425;SDS011;24210;51.460;6.148;2023-03-23T12:02:59;0.22;;;0.22;;
38425;SDS011;24210;51.460;6.148;2023-03-23T12:18:09;0.63;;;0.13;;
38425;SDS011;24210;51.460;6.148;2023-03-23T12:31:17;1.00;;;0.65;;
38425;SDS011;24210;51.460;6.148;2023-03-23T12:36:27;0.30;;;0.10;;
38425;SDS011;24210;51.460;6.148;2023-03-23T12:41:35;0.88;;;0.60;;
38425;SDS011;24210;51.460;6.148;2023-03-23T12:44:06;1.85;;;0.90;;
38425;SDS011;24210;51.460;6.148;2023-03-23T12:49:23;3.20;;;0.90;;
38425;SDS011;24210;51.460;6.148;2023-03-23T12:51:54;1.30;;;0.55;;
38425;SDS011;24210;51.460;6.148;2023-03-23T12:54:28;0.30;;;0.20;;
38425;SDS011;24210;51.460;6.148;2023-03-23T12:59:32;3.13;;;1.02;;
38425;SDS011;24210;51.460;6.148;2023-03-23T13:02:06;1.50;;;0.22;;
38425;SDS011;24210;51.460;6.148;2023-03-23T13:04:36;0.38;;;0.35;;
38425;SDS011;24210;51.460;6.148;2023-03-23T13:07:02;4.50;;;1.92;;
38425;SDS011;24210;51.460;6.148;2023-03-23T13:09:35;1.83;;;0.93;;
38425;SDS011;24210;51.460;6.148;2023-03-23T13:12:02;3.00;;;0.80;;
38425;SDS011;24210;51.460;6.148;2023-03-23T13:17:05;0.98;;;0.38;;
38425;SDS011;24210;51.460;6.148;2023-03-23T13:25:00;5.38;;;0.98;;
38425;SDS011;24210;51.460;6.148;2023-03-23T13:27:27;3.88;;;1.00;;
38425;SDS011;24210;51.460;6.148;2023-03-23T13:29:53;3.33;;;0.75;;
38425;SDS011;24210;51.460;6.148;2023-03-23T13:32:18;0.40;;;0.37;;
38425;SDS011;24210;51.460;6.148;2023-03-23T13:34:45;4.27;;;1.17;;
38425;SDS011;24210;51.460;6.148;2023-03-23T13:37:31;4.78;;;1.27;;
38425;SDS011;24210;51.460;6.148;2023-03-23T13:42:27;10.77;;;2.20;;
38425;SDS011;24210;51.460;6.148;2023-03-23T13:44:56;4.28;;;1.35;;
38425;SDS011;24210;51.460;6.148;2023-03-23T13:50:02;4.30;;;2.15;;
38425;SDS011;24210;51.460;6.148;2023-03-23T13:57:54;5.25;;;0.88;;
38425;SDS011;24210;51.460;6.148;2023-03-23T14:02:50;5.15;;;1.45;;
38425;SDS011;24210;51.460;6.148;2023-03-23T14:07:53;1.08;;;0.60;;
38425;SDS011;24210;51.460;6.148;2023-03-23T14:10:19;3.33;;;1.40;;
38425;SDS011;24210;51.460;6.148;2023-03-23T14:12:44;1.20;;;0.73;;
38425;SDS011;24210;51.460;6.148;2023-03-23T14:15:13;1.50;;;0.43;;
38425;SDS011;24210;51.460;6.148;2023-03-23T14:17:43;7.45;;;2.67;;
38425;SDS011;24210;51.460;6.148;2023-03-23T14:20:09;3.50;;;1.73;;
38425;SDS011;24210;51.460;6.148;2023-03-23T14:22:43;3.50;;;1.92;;
38425;SDS011;24210;51.460;6.148;2023-03-23T14:25:15;1.50;;;0.60;;
38425;SDS011;24210;51.460;6.148;2023-03-23T14:27:41;3.50;;;1.13;;
38425;SDS011;24210;51.460;6.148;2023-03-23T14:30:15;4.97;;;1.60;;
38425;SDS011;24210;51.460;6.148;2023-03-23T14:32:41;3.25;;;1.27;;
38425;SDS011;24210;51.460;6.148;2023-03-23T14:35:28;5.23;;;1.03;;
38425;SDS011;24210;51.460;6.148;2023-03-23T14:37:52;1.38;;;0.68;;
38425;SDS011;24210;51.460;6.148;2023-03-23T14:40:18;2.03;;;0.40;;
38425;SDS011;24210;51.460;6.148;2023-03-23T14:42:43;5.00;;;1.90;;
38425;SDS011;24210;51.460;6.148;2023-03-23T14:45:18;3.93;;;1.07;;
38425;SDS011;24210;51.460;6.148;2023-03-23T14:47:48;0.82;;;0.35;;
38425;SDS011;24210;51.460;6.148;2023-03-23T14:50:25;3.47;;;0.88;;
38425;SDS011;24210;51.460;6.148;2023-03-23T14:52:51;1.35;;;0.52;;
38425;SDS011;24210;51.460;6.148;2023-03-23T14:55:20;2.30;;;1.27;;
38425;SDS011;24210;51.460;6.148;2023-03-23T14:57:46;3.92;;;1.30;;
38425;SDS011;24210;51.460;6.148;2023-03-23T15:00:34;2.65;;;0.45;;
38425;SDS011;24210;51.460;6.148;2023-03-23T15:02:58;3.72;;;0.63;;
38425;SDS011;24210;51.460;6.148;2023-03-23T15:07:50;1.97;;;0.53;;
38425;SDS011;24210;51.460;6.148;2023-03-23T15:10:18;3.50;;;0.85;;
38425;SDS011;24210;51.460;6.148;2023-03-23T15:15:16;2.55;;;0.73;;
38425;SDS011;24210;51.460;6.148;2023-03-23T15:17:44;4.45;;;0.70;;
38425;SDS011;24210;51.460;6.148;2023-03-23T15:20:18;4.47;;;0.98;;
38425;SDS011;24210;51.460;6.148;2023-03-23T15:22:47;5.97;;;1.13;;
38425;SDS011;24210;51.460;6.148;2023-03-23T15:27:45;5.35;;;0.93;;
38425;SDS011;24210;51.460;6.148;2023-03-23T15:32:49;1.85;;;0.63;;
38425;SDS011;24210;51.460;6.148;2023-03-23T15:35:19;1.30;;;0.75;;
38425;SDS011;24210;51.460;6.148;2023-03-23T15:37:48;3.40;;;1.17;;
38425;SDS011;24210;51.460;6.148;2023-03-23T15:40:18;1.33;;;0.57;;
38425;SDS011;24210;51.460;6.148;2023-03-23T15:42:44;2.35;;;0.40;;
38425;SDS011;24210;51.460;6.148;2023-03-23T15:52:38;5.80;;;0.98;;
38425;SDS011;24210;51.460;6.148;2023-03-23T15:55:03;6.13;;;2.20;;
38425;SDS011;24210;51.460;6.148;2023-03-23T15:57:41;3.05;;;1.02;;
38425;SDS011;24210;51.460;6.148;2023-03-23T16:00:07;4.93;;;1.00;;
38425;SDS011;24210;51.460;6.148;2023-03-23T16:02:33;0.65;;;0.47;;
38425;SDS011;24210;51.460;6.148;2023-03-23T16:05:00;6.25;;;1.65;;
38425;SDS011;24210;51.460;6.148;2023-03-23T16:07:25;0.80;;;0.47;;
38425;SDS011;24210;51.460;6.148;2023-03-23T16:09:50;5.40;;;1.53;;
38425;SDS011;24210;51.460;6.148;2023-03-23T16:12:16;3.87;;;1.83;;
38425;SDS011;24210;51.460;6.148;2023-03-23T16:14:41;4.13;;;0.80;;
38425;SDS011;24210;51.460;6.148;2023-03-23T16:17:09;6.60;;;2.30;;
38425;SDS011;24210;51.460;6.148;2023-03-23T16:19:35;3.25;;;1.08;;
38425;SDS011;24210;51.460;6.148;2023-03-23T16:22:00;4.90;;;1.20;;
38425;SDS011;24210;51.460;6.148;2023-03-23T16:24:26;3.83;;;1.60;;
38425;SDS011;24210;51.460;6.148;2023-03-23T16:26:51;9.83;;;1.33;;
38425;SDS011;24210;51.460;6.148;2023-03-23T16:29:16;3.53;;;1.00;;
38425;SDS011;24210;51.460;6.148;2023-03-23T16:31:41;11.33;;;2.00;;
38425;SDS011;24210;51.460;6.148;2023-03-23T16:34:07;1.93;;;0.97;;
38425;SDS011;24210;51.460;6.148;2023-03-23T16:36:32;6.47;;;1.23;;
38425;SDS011;24210;51.460;6.148;2023-03-23T16:38:58;4.73;;;1.40;;
38425;SDS011;24210;51.460;6.148;2023-03-23T16:41:23;6.77;;;2.50;;
38425;SDS011;24210;51.460;6.148;2023-03-23T16:43:48;4.03;;;1.23;;
38425;SDS011;24210;51.460;6.148;2023-03-23T16:46:14;2.77;;;1.10;;
38425;SDS011;24210;51.460;6.148;2023-03-23T16:48:39;5.23;;;0.80;;
38425;SDS011;24210;51.460;6.148;2023-03-23T16:51:04;6.17;;;1.57;;
38425;SDS011;24210;51.460;6.148;2023-03-23T16:53:30;8.20;;;1.20;;
38425;SDS011;24210;51.460;6.148;2023-03-23T16:55:56;4.30;;;1.38;;
38425;SDS011;24210;51.460;6.148;2023-03-23T16:58:22;3.37;;;1.53;;
38425;SDS011;24210;51.460;6.148;2023-03-23T17:00:48;4.57;;;1.40;;
38425;SDS011;24210;51.460;6.148;2023-03-23T17:03:13;2.70;;;0.83;;
38425;SDS011;24210;51.460;6.148;2023-03-23T17:08:05;4.30;;;1.15;;
38425;SDS011;24210;51.460;6.148;2023-03-23T17:10:31;4.05;;;1.48;;
38425;SDS011;24210;51.460;6.148;2023-03-23T17:12:56;6.77;;;1.53;;
38425;SDS011;24210;51.460;6.148;2023-03-23T17:15:22;4.90;;;1.80;;
38425;SDS011;24210;51.460;6.148;2023-03-23T17:17:49;3.85;;;0.82;;
38425;SDS011;24210;51.460;6.148;2023-03-23T17:20:14;3.00;;;1.17;;
38425;SDS011;24210;51.460;6.148;2023-03-23T17:22:40;2.63;;;0.90;;